Happy Valley, Tennessee
Current Conditions -  °F | °C
As of 7:53 PM on Wednesday 22 Oct 2014 (Local Time) from KTYS Reporting Station
Few Clouds Few Clouds  
Wind Chill: 50°   Ceiling: Unl
Heat Index: 50°   Visibility: 10mi
Dew Point: 39°   Wind: 14mph
Humidity: 66%   Direction: 30°NNE
Pressure: 30.19"   Gusts: NA
Location:  35.5537°N, 83.9603°W
Report Text: KTYS 222353Z 03012KT 10SM FEW045 10/04 A3019 RMK AO2 SLP225 T01000039 10156 20100 53011
Loading
Personal Weather Stations






























Interactive Weather Map New forecast layout! Learn more

10-Day Weather Forecast

Advertisements
Track Severe Weather on mobile